sensor_id;sensor_type;location;lat;lon;timestamp;P1;durP1;ratioP1;P2;durP2;ratioP2
77220;SDS011;66217;50.004;8.266;2023-02-15T00:01:28;55.75;;;21.17;;
77220;SDS011;66217;50.004;8.266;2023-02-15T00:03:54;65.18;;;19.20;;
77220;SDS011;66217;50.004;8.266;2023-02-15T00:06:19;67.40;;;19.52;;
77220;SDS011;66217;50.004;8.266;2023-02-15T00:08:45;64.95;;;20.25;;
77220;SDS011;66217;50.004;8.266;2023-02-15T00:11:12;62.42;;;21.17;;
77220;SDS011;66217;50.004;8.266;2023-02-15T00:13:39;56.50;;;19.35;;
77220;SDS011;66217;50.004;8.266;2023-02-15T00:16:11;62.25;;;17.75;;
77220;SDS011;66217;50.004;8.266;2023-02-15T00:18:38;62.72;;;20.45;;
77220;SDS011;66217;50.004;8.266;2023-02-15T00:21:05;66.55;;;18.90;;
77220;SDS011;66217;50.004;8.266;2023-02-15T00:23:31;58.08;;;18.00;;
77220;SDS011;66217;50.004;8.266;2023-02-15T00:26:10;61.63;;;17.50;;
77220;SDS011;66217;50.004;8.266;2023-02-15T00:28:38;62.95;;;19.60;;
77220;SDS011;66217;50.004;8.266;2023-02-15T00:33:30;72.03;;;19.58;;
77220;SDS011;66217;50.004;8.266;2023-02-15T00:35:56;64.53;;;19.92;;
77220;SDS011;66217;50.004;8.266;2023-02-15T00:38:22;66.38;;;19.52;;
77220;SDS011;66217;50.004;8.266;2023-02-15T00:40:52;58.55;;;18.65;;
77220;SDS011;66217;50.004;8.266;2023-02-15T00:43:21;61.58;;;19.42;;
77220;SDS011;66217;50.004;8.266;2023-02-15T00:45:47;53.75;;;19.27;;
77220;SDS011;66217;50.004;8.266;2023-02-15T00:48:13;58.20;;;18.42;;
77220;SDS011;66217;50.004;8.266;2023-02-15T00:50:38;60.97;;;18.42;;
77220;SDS011;66217;50.004;8.266;2023-02-15T00:53:03;72.65;;;21.00;;
77220;SDS011;66217;50.004;8.266;2023-02-15T00:55:29;63.33;;;19.05;;
77220;SDS011;66217;50.004;8.266;2023-02-15T00:57:55;85.97;;;19.33;;
77220;SDS011;66217;50.004;8.266;2023-02-15T01:00:20;69.80;;;21.00;;
77220;SDS011;66217;50.004;8.266;2023-02-15T01:02:46;67.22;;;19.70;;
77220;SDS011;66217;50.004;8.266;2023-02-15T01:05:11;71.20;;;21.77;;
77220;SDS011;66217;50.004;8.266;2023-02-15T01:07:37;85.63;;;21.15;;
77220;SDS011;66217;50.004;8.266;2023-02-15T01:10:04;68.55;;;20.17;;
77220;SDS011;66217;50.004;8.266;2023-02-15T01:12:32;68.75;;;20.52;;
77220;SDS011;66217;50.004;8.266;2023-02-15T01:14:57;62.38;;;20.25;;
77220;SDS011;66217;50.004;8.266;2023-02-15T01:17:24;70.75;;;21.25;;
77220;SDS011;66217;50.004;8.266;2023-02-15T01:19:49;63.45;;;19.92;;
77220;SDS011;66217;50.004;8.266;2023-02-15T01:22:18;66.70;;;20.33;;
77220;SDS011;66217;50.004;8.266;2023-02-15T01:24:44;68.20;;;20.55;;
77220;SDS011;66217;50.004;8.266;2023-02-15T01:27:09;67.05;;;20.33;;
77220;SDS011;66217;50.004;8.266;2023-02-15T01:29:35;65.40;;;21.45;;
77220;SDS011;66217;50.004;8.266;2023-02-15T01:32:00;70.13;;;19.48;;
77220;SDS011;66217;50.004;8.266;2023-02-15T01:34:26;70.53;;;20.52;;
77220;SDS011;66217;50.004;8.266;2023-02-15T01:36:51;57.83;;;19.58;;
77220;SDS011;66217;50.004;8.266;2023-02-15T01:39:16;58.53;;;17.98;;
77220;SDS011;66217;50.004;8.266;2023-02-15T01:41:42;59.28;;;18.83;;
77220;SDS011;66217;50.004;8.266;2023-02-15T01:44:44;61.70;;;18.58;;
77220;SDS011;66217;50.004;8.266;2023-02-15T01:47:09;57.97;;;19.45;;
77220;SDS011;66217;50.004;8.266;2023-02-15T01:49:36;64.68;;;20.65;;
77220;SDS011;66217;50.004;8.266;2023-02-15T01:52:01;54.90;;;19.45;;
77220;SDS011;66217;50.004;8.266;2023-02-15T01:54:29;64.43;;;20.48;;
77220;SDS011;66217;50.004;8.266;2023-02-15T01:57:03;61.40;;;19.30;;
77220;SDS011;66217;50.004;8.266;2023-02-15T01:59:30;62.15;;;19.98;;
77220;SDS011;66217;50.004;8.266;2023-02-15T02:01:57;63.22;;;19.33;;
77220;SDS011;66217;50.004;8.266;2023-02-15T02:04:35;62.15;;;19.58;;
77220;SDS011;66217;50.004;8.266;2023-02-15T02:07:05;56.55;;;19.15;;
77220;SDS011;66217;50.004;8.266;2023-02-15T02:09:31;49.00;;;17.65;;
77220;SDS011;66217;50.004;8.266;2023-02-15T02:11:57;59.45;;;19.80;;
77220;SDS011;66217;50.004;8.266;2023-02-15T02:14:23;62.13;;;20.50;;
77220;SDS011;66217;50.004;8.266;2023-02-15T02:16:55;57.97;;;19.67;;
77220;SDS011;66217;50.004;8.266;2023-02-15T02:19:43;63.95;;;20.23;;
77220;SDS011;66217;50.004;8.266;2023-02-15T02:22:33;55.70;;;19.23;;
77220;SDS011;66217;50.004;8.266;2023-02-15T02:28:01;56.30;;;18.95;;
77220;SDS011;66217;50.004;8.266;2023-02-15T02:36:15;59.72;;;19.73;;
77220;SDS011;66217;50.004;8.266;2023-02-15T02:46:28;56.80;;;18.27;;
77220;SDS011;66217;50.004;8.266;2023-02-15T02:48:57;58.30;;;18.73;;
77220;SDS011;66217;50.004;8.266;2023-02-15T02:51:23;56.97;;;18.30;;
77220;SDS011;66217;50.004;8.266;2023-02-15T02:53:50;61.25;;;19.98;;
77220;SDS011;66217;50.004;8.266;2023-02-15T02:56:20;59.58;;;20.77;;
77220;SDS011;66217;50.004;8.266;2023-02-15T02:59:20;53.63;;;18.33;;
77220;SDS011;66217;50.004;8.266;2023-02-15T03:01:44;58.28;;;19.48;;
77220;SDS011;66217;50.004;8.266;2023-02-15T03:04:15;59.90;;;19.10;;
77220;SDS011;66217;50.004;8.266;2023-02-15T03:09:18;51.33;;;17.13;;
77220;SDS011;66217;50.004;8.266;2023-02-15T03:12:00;48.13;;;18.38;;
77220;SDS011;66217;50.004;8.266;2023-02-15T03:14:26;55.63;;;17.60;;
77220;SDS011;66217;50.004;8.266;2023-02-15T03:16:52;46.35;;;18.02;;
77220;SDS011;66217;50.004;8.266;2023-02-15T03:19:21;53.13;;;18.85;;
77220;SDS011;66217;50.004;8.266;2023-02-15T03:21:51;55.83;;;19.20;;
77220;SDS011;66217;50.004;8.266;2023-02-15T03:24:35;55.65;;;18.58;;
77220;SDS011;66217;50.004;8.266;2023-02-15T03:27:06;60.13;;;19.40;;
77220;SDS011;66217;50.004;8.266;2023-02-15T03:29:34;47.72;;;16.10;;
77220;SDS011;66217;50.004;8.266;2023-02-15T03:32:01;57.28;;;19.65;;
77220;SDS011;66217;50.004;8.266;2023-02-15T03:34:28;60.00;;;19.17;;
77220;SDS011;66217;50.004;8.266;2023-02-15T03:39:52;63.22;;;20.02;;
77220;SDS011;66217;50.004;8.266;2023-02-15T03:42:26;55.60;;;19.23;;
77220;SDS011;66217;50.004;8.266;2023-02-15T03:44:59;51.92;;;18.48;;
77220;SDS011;66217;50.004;8.266;2023-02-15T03:47:30;55.50;;;18.98;;
77220;SDS011;66217;50.004;8.266;2023-02-15T03:52:25;58.90;;;20.17;;
77220;SDS011;66217;50.004;8.266;2023-02-15T03:54:51;59.35;;;19.90;;
77220;SDS011;66217;50.004;8.266;2023-02-15T04:00:11;54.60;;;19.65;;
77220;SDS011;66217;50.004;8.266;2023-02-15T04:03:07;51.75;;;17.60;;
77220;SDS011;66217;50.004;8.266;2023-02-15T04:05:36;54.80;;;19.75;;
77220;SDS011;66217;50.004;8.266;2023-02-15T04:08:02;58.60;;;20.05;;
77220;SDS011;66217;50.004;8.266;2023-02-15T04:10:27;62.08;;;20.98;;
77220;SDS011;66217;50.004;8.266;2023-02-15T04:13:11;58.88;;;19.38;;
77220;SDS011;66217;50.004;8.266;2023-02-15T04:15:36;55.85;;;17.90;;
77220;SDS011;66217;50.004;8.266;2023-02-15T04:18:20;57.90;;;19.92;;
77220;SDS011;66217;50.004;8.266;2023-02-15T04:20:46;56.50;;;18.90;;
77220;SDS011;66217;50.004;8.266;2023-02-15T04:23:30;54.30;;;19.08;;
77220;SDS011;66217;50.004;8.266;2023-02-15T04:26:15;52.63;;;18.85;;
77220;SDS011;66217;50.004;8.266;2023-02-15T04:28:40;60.45;;;19.40;;
77220;SDS011;66217;50.004;8.266;2023-02-15T04:31:06;58.55;;;18.52;;
77220;SDS011;66217;50.004;8.266;2023-02-15T04:33:31;60.78;;;20.50;;
77220;SDS011;66217;50.004;8.266;2023-02-15T04:35:57;60.22;;;21.17;;
77220;SDS011;66217;50.004;8.266;2023-02-15T04:38:22;59.35;;;18.35;;
77220;SDS011;66217;50.004;8.266;2023-02-15T04:40:51;61.75;;;18.13;;
77220;SDS011;66217;50.004;8.266;2023-02-15T04:43:18;53.65;;;19.50;;
77220;SDS011;66217;50.004;8.266;2023-02-15T04:45:50;51.47;;;19.08;;
77220;SDS011;66217;50.004;8.266;2023-02-15T04:48:16;44.90;;;16.70;;
77220;SDS011;66217;50.004;8.266;2023-02-15T04:50:42;52.00;;;19.23;;
77220;SDS011;66217;50.004;8.266;2023-02-15T04:53:08;52.58;;;18.98;;
77220;SDS011;66217;50.004;8.266;2023-02-15T04:55:33;56.97;;;18.58;;
77220;SDS011;66217;50.004;8.266;2023-02-15T04:57:59;57.00;;;19.70;;
77220;SDS011;66217;50.004;8.266;2023-02-15T05:00:24;61.80;;;19.48;;
77220;SDS011;66217;50.004;8.266;2023-02-15T05:02:49;52.63;;;18.40;;
77220;SDS011;66217;50.004;8.266;2023-02-15T05:05:15;56.97;;;19.10;;
77220;SDS011;66217;50.004;8.266;2023-02-15T05:07:40;64.63;;;19.23;;
77220;SDS011;66217;50.004;8.266;2023-02-15T05:10:06;53.03;;;19.08;;
77220;SDS011;66217;50.004;8.266;2023-02-15T05:12:31;54.33;;;18.70;;
77220;SDS011;66217;50.004;8.266;2023-02-15T05:14:57;59.80;;;19.00;;
77220;SDS011;66217;50.004;8.266;2023-02-15T05:17:22;57.05;;;18.83;;
77220;SDS011;66217;50.004;8.266;2023-02-15T05:19:48;75.10;;;19.50;;
77220;SDS011;66217;50.004;8.266;2023-02-15T05:22:13;53.58;;;18.27;;
77220;SDS011;66217;50.004;8.266;2023-02-15T05:24:39;64.47;;;18.55;;
77220;SDS011;66217;50.004;8.266;2023-02-15T05:27:23;57.90;;;18.60;;
77220;SDS011;66217;50.004;8.266;2023-02-15T05:30:07;62.72;;;19.58;;
77220;SDS011;66217;50.004;8.266;2023-02-15T05:32:37;56.85;;;17.05;;
77220;SDS011;66217;50.004;8.266;2023-02-15T05:35:03;55.20;;;18.98;;
77220;SDS011;66217;50.004;8.266;2023-02-15T05:37:29;62.53;;;17.80;;
77220;SDS011;66217;50.004;8.266;2023-02-15T05:39:55;53.70;;;18.17;;
77220;SDS011;66217;50.004;8.266;2023-02-15T05:42:20;62.40;;;18.67;;
77220;SDS011;66217;50.004;8.266;2023-02-15T05:44:45;55.65;;;17.88;;
77220;SDS011;66217;50.004;8.266;2023-02-15T05:47:11;50.00;;;17.27;;
77220;SDS011;66217;50.004;8.266;2023-02-15T05:49:36;53.17;;;16.88;;
77220;SDS011;66217;50.004;8.266;2023-02-15T05:52:02;58.20;;;17.95;;
77220;SDS011;66217;50.004;8.266;2023-02-15T05:54:28;47.78;;;16.45;;
77220;SDS011;66217;50.004;8.266;2023-02-15T05:56:53;59.78;;;17.10;;
77220;SDS011;66217;50.004;8.266;2023-02-15T05:59:19;58.10;;;18.88;;
77220;SDS011;66217;50.004;8.266;2023-02-15T06:01:44;54.60;;;18.10;;
77220;SDS011;66217;50.004;8.266;2023-02-15T06:04:10;51.40;;;16.92;;
77220;SDS011;66217;50.004;8.266;2023-02-15T06:06:35;47.53;;;16.08;;
77220;SDS011;66217;50.004;8.266;2023-02-15T06:09:01;48.67;;;16.02;;
77220;SDS011;66217;50.004;8.266;2023-02-15T06:11:26;51.97;;;16.45;;
77220;SDS011;66217;50.004;8.266;2023-02-15T06:13:52;37.50;;;14.55;;
77220;SDS011;66217;50.004;8.266;2023-02-15T06:16:17;49.78;;;16.40;;
77220;SDS011;66217;50.004;8.266;2023-02-15T06:18:42;51.58;;;15.60;;
77220;SDS011;66217;50.004;8.266;2023-02-15T06:21:08;46.15;;;15.80;;
77220;SDS011;66217;50.004;8.266;2023-02-15T06:23:33;42.00;;;14.93;;
77220;SDS011;66217;50.004;8.266;2023-02-15T06:25:59;48.67;;;16.65;;
77220;SDS011;66217;50.004;8.266;2023-02-15T06:28:24;44.63;;;14.32;;
77220;SDS011;66217;50.004;8.266;2023-02-15T06:30:50;47.35;;;15.20;;
77220;SDS011;66217;50.004;8.266;2023-02-15T06:33:16;44.70;;;16.80;;
77220;SDS011;66217;50.004;8.266;2023-02-15T06:35:41;44.88;;;15.02;;
77220;SDS011;66217;50.004;8.266;2023-02-15T06:38:07;43.30;;;15.15;;
77220;SDS011;66217;50.004;8.266;2023-02-15T06:40:32;39.63;;;14.38;;
77220;SDS011;66217;50.004;8.266;2023-02-15T06:42:58;44.83;;;15.90;;
77220;SDS011;66217;50.004;8.266;2023-02-15T06:45:23;45.63;;;16.05;;
77220;SDS011;66217;50.004;8.266;2023-02-15T06:47:48;47.13;;;17.10;;
77220;SDS011;66217;50.004;8.266;2023-02-15T06:50:14;34.30;;;13.52;;
77220;SDS011;66217;50.004;8.266;2023-02-15T06:52:40;40.65;;;14.43;;
77220;SDS011;66217;50.004;8.266;2023-02-15T06:55:05;48.60;;;14.50;;
77220;SDS011;66217;50.004;8.266;2023-02-15T06:57:31;47.03;;;16.05;;
77220;SDS011;66217;50.004;8.266;2023-02-15T06:59:58;43.92;;;14.90;;
77220;SDS011;66217;50.004;8.266;2023-02-15T07:02:23;35.08;;;13.73;;
77220;SDS011;66217;50.004;8.266;2023-02-15T07:04:49;41.88;;;14.35;;
77220;SDS011;66217;50.004;8.266;2023-02-15T07:07:14;31.55;;;11.82;;
77220;SDS011;66217;50.004;8.266;2023-02-15T07:09:40;38.58;;;13.75;;
77220;SDS011;66217;50.004;8.266;2023-02-15T07:12:06;42.00;;;13.23;;
77220;SDS011;66217;50.004;8.266;2023-02-15T07:14:50;33.88;;;12.90;;
77220;SDS011;66217;50.004;8.266;2023-02-15T07:17:15;30.73;;;12.57;;
77220;SDS011;66217;50.004;8.266;2023-02-15T07:19:41;31.88;;;11.35;;
77220;SDS011;66217;50.004;8.266;2023-02-15T07:22:06;35.50;;;13.80;;
77220;SDS011;66217;50.004;8.266;2023-02-15T07:24:31;24.80;;;10.82;;
77220;SDS011;66217;50.004;8.266;2023-02-15T07:26:57;29.02;;;10.57;;
77220;SDS011;66217;50.004;8.266;2023-02-15T07:29:23;25.33;;;10.98;;
77220;SDS011;66217;50.004;8.266;2023-02-15T07:31:48;29.98;;;12.30;;
77220;SDS011;66217;50.004;8.266;2023-02-15T07:34:14;30.08;;;11.27;;
77220;SDS011;66217;50.004;8.266;2023-02-15T07:36:40;29.52;;;11.32;;
77220;SDS011;66217;50.004;8.266;2023-02-15T07:39:06;23.55;;;9.52;;
77220;SDS011;66217;50.004;8.266;2023-02-15T07:41:31;27.27;;;11.35;;
77220;SDS011;66217;50.004;8.266;2023-02-15T07:43:56;28.40;;;10.82;;
77220;SDS011;66217;50.004;8.266;2023-02-15T07:46:22;30.80;;;11.95;;
77220;SDS011;66217;50.004;8.266;2023-02-15T07:48:47;29.75;;;11.13;;
77220;SDS011;66217;50.004;8.266;2023-02-15T07:51:13;30.27;;;10.95;;
77220;SDS011;66217;50.004;8.266;2023-02-15T07:53:39;30.52;;;11.38;;
77220;SDS011;66217;50.004;8.266;2023-02-15T07:56:06;27.70;;;11.18;;
77220;SDS011;66217;50.004;8.266;2023-02-15T07:58:34;31.30;;;10.82;;
77220;SDS011;66217;50.004;8.266;2023-02-15T08:03:47;29.70;;;12.00;;
77220;SDS011;66217;50.004;8.266;2023-02-15T08:06:15;28.60;;;10.48;;
77220;SDS011;66217;50.004;8.266;2023-02-15T08:08:40;24.52;;;10.00;;
77220;SDS011;66217;50.004;8.266;2023-02-15T08:14:17;26.52;;;10.30;;
77220;SDS011;66217;50.004;8.266;2023-02-15T08:16:48;25.35;;;9.45;;
77220;SDS011;66217;50.004;8.266;2023-02-15T08:21:48;27.80;;;10.50;;
77220;SDS011;66217;50.004;8.266;2023-02-15T08:24:16;23.15;;;9.70;;
77220;SDS011;66217;50.004;8.266;2023-02-15T08:26:44;26.02;;;10.30;;
77220;SDS011;66217;50.004;8.266;2023-02-15T08:29:11;22.45;;;9.07;;
77220;SDS011;66217;50.004;8.266;2023-02-15T08:31:37;24.30;;;10.25;;
77220;SDS011;66217;50.004;8.266;2023-02-15T08:34:03;28.55;;;9.50;;
77220;SDS011;66217;50.004;8.266;2023-02-15T08:36:30;22.52;;;10.15;;
77220;SDS011;66217;50.004;8.266;2023-02-15T08:38:57;23.85;;;10.35;;
77220;SDS011;66217;50.004;8.266;2023-02-15T08:41:24;23.10;;;10.05;;
77220;SDS011;66217;50.004;8.266;2023-02-15T08:44:00;26.88;;;9.75;;
77220;SDS011;66217;50.004;8.266;2023-02-15T08:46:28;25.30;;;10.40;;
77220;SDS011;66217;50.004;8.266;2023-02-15T08:48:55;25.23;;;9.98;;
77220;SDS011;66217;50.004;8.266;2023-02-15T08:51:25;26.02;;;9.75;;
77220;SDS011;66217;50.004;8.266;2023-02-15T08:53:53;22.50;;;8.73;;
77220;SDS011;66217;50.004;8.266;2023-02-15T08:56:24;27.20;;;10.25;;
77220;SDS011;66217;50.004;8.266;2023-02-15T08:58:52;24.77;;;9.90;;
77220;SDS011;66217;50.004;8.266;2023-02-15T09:01:19;23.50;;;10.40;;
77220;SDS011;66217;50.004;8.266;2023-02-15T09:03:46;28.08;;;10.23;;
77220;SDS011;66217;50.004;8.266;2023-02-15T09:06:14;27.88;;;11.20;;
77220;SDS011;66217;50.004;8.266;2023-02-15T09:08:41;27.02;;;9.73;;
77220;SDS011;66217;50.004;8.266;2023-02-15T09:11:07;26.13;;;10.77;;
77220;SDS011;66217;50.004;8.266;2023-02-15T09:13:35;22.08;;;9.95;;
77220;SDS011;66217;50.004;8.266;2023-02-15T09:16:04;31.40;;;9.95;;
77220;SDS011;66217;50.004;8.266;2023-02-15T09:18:32;26.65;;;10.05;;
77220;SDS011;66217;50.004;8.266;2023-02-15T09:21:07;28.23;;;10.32;;
77220;SDS011;66217;50.004;8.266;2023-02-15T09:23:34;32.70;;;11.10;;
77220;SDS011;66217;50.004;8.266;2023-02-15T09:26:04;29.17;;;11.68;;
77220;SDS011;66217;50.004;8.266;2023-02-15T09:28:33;31.83;;;11.20;;
77220;SDS011;66217;50.004;8.266;2023-02-15T09:31:10;28.02;;;11.50;;
77220;SDS011;66217;50.004;8.266;2023-02-15T09:33:37;23.60;;;9.48;;
77220;SDS011;66217;50.004;8.266;2023-02-15T09:36:04;25.75;;;10.13;;
77220;SDS011;66217;50.004;8.266;2023-02-15T09:38:30;25.30;;;11.45;;
77220;SDS011;66217;50.004;8.266;2023-02-15T09:46:15;25.25;;;9.95;;
77220;SDS011;66217;50.004;8.266;2023-02-15T09:48:50;25.35;;;10.35;;
77220;SDS011;66217;50.004;8.266;2023-02-15T09:51:32;26.92;;;11.68;;
77220;SDS011;66217;50.004;8.266;2023-02-15T09:56:47;28.05;;;10.63;;
77220;SDS011;66217;50.004;8.266;2023-02-15T10:04:40;29.40;;;11.52;;
77220;SDS011;66217;50.004;8.266;2023-02-15T10:13:12;33.78;;;13.02;;
77220;SDS011;66217;50.004;8.266;2023-02-15T10:18:33;28.75;;;12.20;;
77220;SDS011;66217;50.004;8.266;2023-02-15T10:24:06;25.20;;;10.38;;
77220;SDS011;66217;50.004;8.266;2023-02-15T10:26:40;29.42;;;12.15;;
77220;SDS011;66217;50.004;8.266;2023-02-15T10:29:09;31.38;;;12.50;;
77220;SDS011;66217;50.004;8.266;2023-02-15T10:31:47;27.00;;;11.07;;
77220;SDS011;66217;50.004;8.266;2023-02-15T10:42:24;30.52;;;11.30;;
77220;SDS011;66217;50.004;8.266;2023-02-15T10:45:23;24.08;;;10.93;;
77220;SDS011;66217;50.004;8.266;2023-02-15T10:50:55;26.35;;;11.32;;
77220;SDS011;66217;50.004;8.266;2023-02-15T10:56:24;24.45;;;11.27;;
77220;SDS011;66217;50.004;8.266;2023-02-15T10:59:22;23.88;;;10.75;;
77220;SDS011;66217;50.004;8.266;2023-02-15T11:05:24;23.23;;;10.68;;
77220;SDS011;66217;50.004;8.266;2023-02-15T11:08:03;26.00;;;10.68;;
77220;SDS011;66217;50.004;8.266;2023-02-15T11:13:09;24.88;;;10.38;;
77220;SDS011;66217;50.004;8.266;2023-02-15T11:15:57;29.63;;;11.02;;
77220;SDS011;66217;50.004;8.266;2023-02-15T11:18:39;22.77;;;10.20;;
77220;SDS011;66217;50.004;8.266;2023-02-15T11:24:12;29.50;;;12.35;;
77220;SDS011;66217;50.004;8.266;2023-02-15T11:26:43;36.95;;;12.60;;
77220;SDS011;66217;50.004;8.266;2023-02-15T11:29:24;32.47;;;13.63;;
77220;SDS011;66217;50.004;8.266;2023-02-15T11:34:40;27.17;;;12.43;;
77220;SDS011;66217;50.004;8.266;2023-02-15T11:37:29;29.40;;;11.93;;
77220;SDS011;66217;50.004;8.266;2023-02-15T11:39:59;29.45;;;10.68;;
77220;SDS011;66217;50.004;8.266;2023-02-15T11:42:26;31.63;;;13.05;;
77220;SDS011;66217;50.004;8.266;2023-02-15T11:47:28;32.15;;;13.48;;
77220;SDS011;66217;50.004;8.266;2023-02-15T11:49:53;29.33;;;12.70;;
77220;SDS011;66217;50.004;8.266;2023-02-15T11:52:18;39.22;;;14.48;;
77220;SDS011;66217;50.004;8.266;2023-02-15T11:54:48;36.50;;;15.00;;
77220;SDS011;66217;50.004;8.266;2023-02-15T11:57:28;34.63;;;14.13;;
77220;SDS011;66217;50.004;8.266;2023-02-15T12:02:37;30.27;;;12.77;;
77220;SDS011;66217;50.004;8.266;2023-02-15T12:05:09;28.48;;;12.13;;
77220;SDS011;66217;50.004;8.266;2023-02-15T12:07:37;28.23;;;12.65;;
77220;SDS011;66217;50.004;8.266;2023-02-15T12:13:13;31.42;;;12.35;;
77220;SDS011;66217;50.004;8.266;2023-02-15T12:15:47;32.70;;;12.70;;
77220;SDS011;66217;50.004;8.266;2023-02-15T12:18:24;29.20;;;12.88;;
77220;SDS011;66217;50.004;8.266;2023-02-15T12:21:01;27.70;;;12.70;;
77220;SDS011;66217;50.004;8.266;2023-02-15T12:23:29;32.60;;;13.32;;
77220;SDS011;66217;50.004;8.266;2023-02-15T12:26:01;31.75;;;12.52;;
77220;SDS011;66217;50.004;8.266;2023-02-15T12:28:34;28.58;;;13.57;;
77220;SDS011;66217;50.004;8.266;2023-02-15T12:31:02;29.98;;;11.73;;
77220;SDS011;66217;50.004;8.266;2023-02-15T12:33:41;26.92;;;11.77;;
77220;SDS011;66217;50.004;8.266;2023-02-15T12:36:29;27.50;;;12.15;;
77220;SDS011;66217;50.004;8.266;2023-02-15T12:41:36;27.10;;;12.02;;
77220;SDS011;66217;50.004;8.266;2023-02-15T12:44:19;29.27;;;13.25;;
77220;SDS011;66217;50.004;8.266;2023-02-15T12:46:55;25.30;;;11.57;;
77220;SDS011;66217;50.004;8.266;2023-02-15T12:49:24;30.30;;;12.73;;
77220;SDS011;66217;50.004;8.266;2023-02-15T12:51:51;26.80;;;11.93;;
77220;SDS011;66217;50.004;8.266;2023-02-15T12:54:39;27.85;;;12.57;;
77220;SDS011;66217;50.004;8.266;2023-02-15T12:57:25;27.90;;;12.00;;
77220;SDS011;66217;50.004;8.266;2023-02-15T12:59:51;27.67;;;12.07;;
77220;SDS011;66217;50.004;8.266;2023-02-15T13:02:23;26.38;;;13.63;;
77220;SDS011;66217;50.004;8.266;2023-02-15T13:04:51;26.55;;;12.05;;
77220;SDS011;66217;50.004;8.266;2023-02-15T13:07:16;26.95;;;13.13;;
77220;SDS011;66217;50.004;8.266;2023-02-15T13:09:42;27.42;;;12.63;;
77220;SDS011;66217;50.004;8.266;2023-02-15T13:12:30;27.00;;;12.23;;
77220;SDS011;66217;50.004;8.266;2023-02-15T13:14:59;26.60;;;12.43;;
77220;SDS011;66217;50.004;8.266;2023-02-15T13:17:28;29.58;;;13.20;;
77220;SDS011;66217;50.004;8.266;2023-02-15T13:20:06;26.88;;;12.95;;
77220;SDS011;66217;50.004;8.266;2023-02-15T13:22:43;24.27;;;10.90;;
77220;SDS011;66217;50.004;8.266;2023-02-15T13:25:20;26.80;;;12.60;;
77220;SDS011;66217;50.004;8.266;2023-02-15T13:27:48;28.27;;;12.80;;
77220;SDS011;66217;50.004;8.266;2023-02-15T13:30:50;26.38;;;12.10;;
77220;SDS011;66217;50.004;8.266;2023-02-15T13:33:16;32.58;;;13.70;;
77220;SDS011;66217;50.004;8.266;2023-02-15T13:35:48;32.42;;;13.50;;
77220;SDS011;66217;50.004;8.266;2023-02-15T13:38:24;30.60;;;13.43;;
77220;SDS011;66217;50.004;8.266;2023-02-15T13:40:55;27.70;;;12.93;;
77220;SDS011;66217;50.004;8.266;2023-02-15T13:54:16;30.02;;;13.55;;
77220;SDS011;66217;50.004;8.266;2023-02-15T14:00:14;29.90;;;13.65;;
77220;SDS011;66217;50.004;8.266;2023-02-15T14:09:06;30.83;;;13.07;;
77220;SDS011;66217;50.004;8.266;2023-02-15T14:11:44;29.02;;;14.45;;
77220;SDS011;66217;50.004;8.266;2023-02-15T14:17:03;26.65;;;13.02;;
77220;SDS011;66217;50.004;8.266;2023-02-15T14:25:05;27.17;;;13.57;;
77220;SDS011;66217;50.004;8.266;2023-02-15T14:27:54;35.88;;;15.35;;
77220;SDS011;66217;50.004;8.266;2023-02-15T14:30:26;27.80;;;13.95;;
77220;SDS011;66217;50.004;8.266;2023-02-15T14:33:01;37.10;;;16.05;;
77220;SDS011;66217;50.004;8.266;2023-02-15T14:35:34;36.22;;;15.70;;
77220;SDS011;66217;50.004;8.266;2023-02-15T14:48:48;31.60;;;15.60;;
77220;SDS011;66217;50.004;8.266;2023-02-15T14:54:08;33.72;;;15.30;;
77220;SDS011;66217;50.004;8.266;2023-02-15T14:56:34;36.50;;;16.15;;
77220;SDS011;66217;50.004;8.266;2023-02-15T14:59:01;32.58;;;14.57;;
77220;SDS011;66217;50.004;8.266;2023-02-15T15:01:38;40.33;;;17.05;;
77220;SDS011;66217;50.004;8.266;2023-02-15T15:04:05;34.03;;;15.45;;
77220;SDS011;66217;50.004;8.266;2023-02-15T15:06:38;36.75;;;16.52;;
77220;SDS011;66217;50.004;8.266;2023-02-15T15:11:54;35.42;;;16.35;;
77220;SDS011;66217;50.004;8.266;2023-02-15T15:14:36;35.53;;;16.38;;
77220;SDS011;66217;50.004;8.266;2023-02-15T15:17:02;34.30;;;15.40;;
77220;SDS011;66217;50.004;8.266;2023-02-15T15:22:23;36.70;;;17.48;;
77220;SDS011;66217;50.004;8.266;2023-02-15T15:24:52;45.20;;;18.50;;
77220;SDS011;66217;50.004;8.266;2023-02-15T15:27:38;38.17;;;18.23;;
77220;SDS011;66217;50.004;8.266;2023-02-15T15:32:47;38.03;;;19.10;;
77220;SDS011;66217;50.004;8.266;2023-02-15T15:38:22;38.30;;;18.75;;
77220;SDS011;66217;50.004;8.266;2023-02-15T15:41:19;38.45;;;17.92;;
77220;SDS011;66217;50.004;8.266;2023-02-15T15:49:36;42.92;;;17.83;;
77220;SDS011;66217;50.004;8.266;2023-02-15T15:52:07;41.35;;;17.15;;
77220;SDS011;66217;50.004;8.266;2023-02-15T15:54:38;38.85;;;17.83;;
77220;SDS011;66217;50.004;8.266;2023-02-15T15:57:03;40.58;;;17.85;;
77220;SDS011;66217;50.004;8.266;2023-02-15T15:59:30;40.63;;;18.35;;
77220;SDS011;66217;50.004;8.266;2023-02-15T16:02:03;47.17;;;19.88;;
77220;SDS011;66217;50.004;8.266;2023-02-15T16:04:30;41.20;;;17.77;;
77220;SDS011;66217;50.004;8.266;2023-02-15T16:06:57;47.90;;;18.70;;
77220;SDS011;66217;50.004;8.266;2023-02-15T16:09:25;36.80;;;17.90;;
77220;SDS011;66217;50.004;8.266;2023-02-15T16:11:53;38.97;;;18.05;;
77220;SDS011;66217;50.004;8.266;2023-02-15T16:14:32;42.47;;;18.23;;
77220;SDS011;66217;50.004;8.266;2023-02-15T16:17:02;40.47;;;17.65;;
77220;SDS011;66217;50.004;8.266;2023-02-15T16:19:33;40.65;;;17.90;;
77220;SDS011;66217;50.004;8.266;2023-02-15T16:22:00;39.55;;;17.95;;
77220;SDS011;66217;50.004;8.266;2023-02-15T16:24:37;42.30;;;18.60;;
77220;SDS011;66217;50.004;8.266;2023-02-15T16:29:42;48.20;;;22.02;;
77220;SDS011;66217;50.004;8.266;2023-02-15T16:37:47;37.47;;;17.67;;
77220;SDS011;66217;50.004;8.266;2023-02-15T16:40:25;44.10;;;19.13;;
77220;SDS011;66217;50.004;8.266;2023-02-15T16:42:54;43.10;;;19.02;;
77220;SDS011;66217;50.004;8.266;2023-02-15T16:45:22;42.65;;;18.08;;
77220;SDS011;66217;50.004;8.266;2023-02-15T16:47:50;43.10;;;18.75;;
77220;SDS011;66217;50.004;8.266;2023-02-15T16:50:37;42.95;;;17.88;;
77220;SDS011;66217;50.004;8.266;2023-02-15T16:53:03;39.85;;;16.10;;
77220;SDS011;66217;50.004;8.266;2023-02-15T16:55:40;37.50;;;15.65;;
77220;SDS011;66217;50.004;8.266;2023-02-15T16:58:07;36.47;;;16.80;;
77220;SDS011;66217;50.004;8.266;2023-02-15T17:00:39;39.88;;;18.83;;
77220;SDS011;66217;50.004;8.266;2023-02-15T17:03:13;42.50;;;18.02;;
77220;SDS011;66217;50.004;8.266;2023-02-15T17:05:50;41.72;;;18.08;;
77220;SDS011;66217;50.004;8.266;2023-02-15T17:08:42;40.20;;;16.58;;
77220;SDS011;66217;50.004;8.266;2023-02-15T17:11:11;51.90;;;20.30;;
77220;SDS011;66217;50.004;8.266;2023-02-15T17:13:38;47.05;;;19.55;;
77220;SDS011;66217;50.004;8.266;2023-02-15T17:18:34;49.65;;;21.45;;
77220;SDS011;66217;50.004;8.266;2023-02-15T17:21:11;53.70;;;21.75;;
77220;SDS011;66217;50.004;8.266;2023-02-15T17:23:49;37.17;;;18.05;;
77220;SDS011;66217;50.004;8.266;2023-02-15T17:26:18;38.05;;;15.98;;
77220;SDS011;66217;50.004;8.266;2023-02-15T17:28:55;49.65;;;19.70;;